createdAt,value
2023-02-12T00:02:39.745Z,50.40
2023-02-12T00:07:42.394Z,49.30
2023-02-12T00:12:45.228Z,48.40
2023-02-12T00:17:47.647Z,47.60
2023-02-12T00:22:50.066Z,48.10
2023-02-12T00:27:52.519Z,49.10
2023-02-12T00:32:54.912Z,50.40
2023-02-12T00:37:57.510Z,51.80
2023-02-12T00:42:59.939Z,52.70
2023-02-12T00:48:02.341Z,53.80
2023-02-12T00:53:04.678Z,54.50
2023-02-12T00:58:08.025Z,55.40
2023-02-12T01:03:10.500Z,56.00
2023-02-12T01:08:14.700Z,56.70
2023-02-12T01:13:17.404Z,57.20
2023-02-12T01:18:19.899Z,57.60
2023-02-12T01:23:22.311Z,58.20
2023-02-12T01:28:24.790Z,58.90
2023-02-12T01:33:27.291Z,59.60
2023-02-12T01:38:30.327Z,60.10
2023-02-12T01:43:35.478Z,60.90
2023-02-12T01:48:46.799Z,61.40
2023-02-12T01:53:53.668Z,61.80
2023-02-12T01:58:57.828Z,62.50
2023-02-12T02:04:05.231Z,62.80
2023-02-12T02:09:07.791Z,63.10
2023-02-12T02:14:29.040Z,63.20
2023-02-12T02:19:41.759Z,63.30
2023-02-12T02:25:08.459Z,62.60
2023-02-12T02:30:14.305Z,62.60
2023-02-12T02:35:43.451Z,62.60
2023-02-12T02:41:08.675Z,62.50
2023-02-12T02:46:17.933Z,62.00
2023-02-12T02:51:25.626Z,62.00
2023-02-12T02:56:30.258Z,62.00
2023-02-12T03:01:38.653Z,61.90
2023-02-12T03:06:58.185Z,61.90
2023-02-12T03:12:06.414Z,61.40
2023-02-12T03:17:29.397Z,60.90
2023-02-12T03:22:35.944Z,60.60
2023-02-12T03:27:42.684Z,60.40
2023-02-12T03:33:20.522Z,60.30
2023-02-12T03:38:44.451Z,59.90
2023-02-12T03:44:08.373Z,58.40
2023-02-12T03:49:28.333Z,58.20
2023-02-12T03:54:31.007Z,58.40
2023-02-12T03:59:36.795Z,58.40
2023-02-12T04:04:39.774Z,58.20
2023-02-12T04:09:42.268Z,58.20
2023-02-12T04:14:49.807Z,58.30
2023-02-12T04:20:16.887Z,58.60
2023-02-12T04:25:35.644Z,57.90
2023-02-12T04:30:52.776Z,57.90
2023-02-12T04:35:58.142Z,57.70
2023-02-12T04:41:00.872Z,57.70
2023-02-12T04:46:05.213Z,57.60
2023-02-12T04:51:07.633Z,57.60
2023-02-12T04:56:13.273Z,57.40
2023-02-12T05:01:15.864Z,57.30
2023-02-12T05:06:18.580Z,57.30
2023-02-12T05:11:21.004Z,57.20
2023-02-12T05:16:23.526Z,57.20
2023-02-12T05:21:26.308Z,57.40
2023-02-12T05:26:28.666Z,57.00
2023-02-12T05:31:31.259Z,56.90
2023-02-12T05:36:33.704Z,56.60
2023-02-12T05:41:36.147Z,56.60
2023-02-12T05:46:39.065Z,56.30
2023-02-12T05:51:41.561Z,56.10
2023-02-12T05:56:46.682Z,55.80
2023-02-12T06:01:51.156Z,55.60
2023-02-12T06:06:54.415Z,55.50
2023-02-12T06:11:56.822Z,55.40
2023-02-12T06:16:59.428Z,55.10
2023-02-12T06:22:01.885Z,55.10
2023-02-12T06:27:04.503Z,54.90
2023-02-12T06:32:08.577Z,54.80
2023-02-12T06:37:12.236Z,54.50
2023-02-12T06:42:14.658Z,54.30
2023-02-12T06:47:17.031Z,54.40
2023-02-12T06:52:21.212Z,54.20
2023-02-12T06:57:23.644Z,54.40
2023-02-12T07:02:26.106Z,54.60
2023-02-12T07:07:28.520Z,54.70
2023-02-12T07:12:30.891Z,54.50
2023-02-12T07:17:33.368Z,54.50
2023-02-12T07:22:37.305Z,53.90
2023-02-12T07:27:39.705Z,53.80
2023-02-12T07:32:42.241Z,53.20
2023-02-12T07:37:44.612Z,53.20
2023-02-12T07:42:50.045Z,52.60
2023-02-12T07:47:53.051Z,52.20
2023-02-12T07:52:55.422Z,52.10
2023-02-12T07:57:57.929Z,52.10
2023-02-12T08:03:00.296Z,52.30
2023-02-12T08:08:02.705Z,52.50
2023-02-12T08:13:05.058Z,52.30
2023-02-12T08:18:07.451Z,52.40
2023-02-12T08:23:10.168Z,52.90
2023-02-12T08:28:12.597Z,53.10
2023-02-12T08:33:16.239Z,53.80
2023-02-12T08:38:18.571Z,53.40
2023-02-12T08:43:20.970Z,53.10
2023-02-12T08:48:23.707Z,52.20
2023-02-12T08:53:26.043Z,51.10
2023-02-12T08:58:28.535Z,50.20
2023-02-12T09:03:31.188Z,49.40
2023-02-12T09:08:33.904Z,47.10
2023-02-12T09:13:37.100Z,43.40
2023-02-12T09:18:40.481Z,40.50
2023-02-12T09:23:44.340Z,39.10
2023-02-12T09:28:47.811Z,38.70
2023-02-12T09:33:53.336Z,35.70
2023-02-12T09:38:59.242Z,32.10
2023-02-12T09:44:01.799Z,31.60
2023-02-12T09:49:33.448Z,28.50
2023-02-12T09:54:39.005Z,26.30
2023-02-12T09:59:46.798Z,25.40
2023-02-12T10:05:00.684Z,25.10
2023-02-12T10:10:32.569Z,22.00
2023-02-12T10:15:52.846Z,20.60
2023-02-12T10:21:17.506Z,17.60
2023-02-12T10:26:52.481Z,16.40
2023-02-12T10:32:00.635Z,12.80
2023-02-12T10:37:24.415Z,12.40
2023-02-12T10:42:39.259Z,14.40
2023-02-12T10:47:41.789Z,17.40
2023-02-12T10:53:00.872Z,20.80
2023-02-12T10:58:16.762Z,23.30
2023-02-12T11:03:27.468Z,23.70
2023-02-12T11:08:32.712Z,23.40
2023-02-12T11:13:36.834Z,22.40
2023-02-12T11:18:39.757Z,21.10
2023-02-12T11:23:44.198Z,22.40
2023-02-12T11:28:56.628Z,25.80
2023-02-12T11:34:09.799Z,27.30
2023-02-12T11:39:24.792Z,26.20
2023-02-12T11:44:35.423Z,23.00
2023-02-12T11:49:52.545Z,19.40
2023-02-12T11:54:59.835Z,17.90
2023-02-12T12:00:12.546Z,12.30
2023-02-12T12:05:22.706Z,4.80
2023-02-12T12:10:37.767Z,1.00
2023-02-12T12:16:03.958Z,1.00
2023-02-12T12:21:26.004Z,1.00
2023-02-12T12:26:34.678Z,1.00
2023-02-12T12:31:44.185Z,1.00
2023-02-12T12:36:46.771Z,1.00
2023-02-12T12:42:16.809Z,1.00
2023-02-12T12:47:21.915Z,1.00
2023-02-12T12:53:00.678Z,1.00
2023-02-12T12:58:20.541Z,1.00
2023-02-12T13:03:43.384Z,1.00
2023-02-12T13:09:04.894Z,1.00
2023-02-12T13:14:27.704Z,1.00
2023-02-12T13:19:48.415Z,1.00
2023-02-12T13:25:02.480Z,3.50
2023-02-12T13:30:20.362Z,6.40
2023-02-12T13:35:25.298Z,6.90
2023-02-12T13:40:30.238Z,8.80
2023-02-12T13:45:47.350Z,11.00
2023-02-12T13:51:26.324Z,13.20
2023-02-12T13:56:43.828Z,13.40
2023-02-12T14:01:49.600Z,14.20
2023-02-12T14:07:06.841Z,15.00
2023-02-12T14:12:26.791Z,15.70
2023-02-12T14:17:29.222Z,16.00
2023-02-12T14:22:31.593Z,14.60
2023-02-12T14:27:42.350Z,2.90
2023-02-12T14:32:50.880Z,1.00
2023-02-12T14:37:59.343Z,1.00
2023-02-12T14:43:04.106Z,1.00
2023-02-12T14:48:26.438Z,1.00
2023-02-12T14:53:35.499Z,1.00
2023-02-12T14:58:38.104Z,1.00
2023-02-12T15:03:52.758Z,1.00
2023-02-12T15:09:07.291Z,1.00
2023-02-12T15:14:35.095Z,1.00
2023-02-12T15:19:53.689Z,1.00
2023-02-12T15:25:33.388Z,1.00
2023-02-12T15:30:37.321Z,1.00
2023-02-12T15:35:44.827Z,1.00
2023-02-12T15:40:59.255Z,1.00
2023-02-12T15:46:04.065Z,1.00
2023-02-12T15:51:09.656Z,1.00
2023-02-12T15:56:18.163Z,1.00
2023-02-12T16:01:24.101Z,1.00
2023-02-12T16:06:29.182Z,1.00
2023-02-12T16:11:32.767Z,1.00
2023-02-12T16:16:45.248Z,1.00
2023-02-12T16:21:52.154Z,1.00
2023-02-12T16:26:55.693Z,1.00
2023-02-12T16:32:02.004Z,1.00
2023-02-12T16:37:36.520Z,1.00
2023-02-12T16:43:02.722Z,1.00
2023-02-12T16:48:15.697Z,1.00
2023-02-12T16:53:30.277Z,1.00
2023-02-12T16:58:32.721Z,1.00
2023-02-12T17:03:35.668Z,1.00
2023-02-12T17:08:38.124Z,1.00
2023-02-12T17:13:40.606Z,1.00
2023-02-12T17:18:43.266Z,1.00
2023-02-12T17:23:45.639Z,1.00
2023-02-12T17:28:48.072Z,1.00
2023-02-12T17:33:50.584Z,1.00
2023-02-12T17:38:53.053Z,1.00
2023-02-12T17:43:55.818Z,1.00
2023-02-12T17:48:58.676Z,1.00
2023-02-12T17:54:01.112Z,1.00
2023-02-12T17:59:03.570Z,1.00
2023-02-12T18:04:06.029Z,1.00
2023-02-12T18:09:08.643Z,1.00
2023-02-12T18:14:12.036Z,1.00
2023-02-12T18:19:14.893Z,1.00
2023-02-12T18:24:17.340Z,1.20
2023-02-12T18:29:22.488Z,3.00
2023-02-12T18:34:25.472Z,6.50
2023-02-12T18:39:29.173Z,10.90
2023-02-12T18:44:32.390Z,13.60
2023-02-12T18:49:34.883Z,15.50
2023-02-12T18:54:37.875Z,18.20
2023-02-12T18:59:40.308Z,20.30
2023-02-12T19:04:42.974Z,22.10
2023-02-12T19:09:45.332Z,24.70
2023-02-12T19:14:47.878Z,26.30
2023-02-12T19:19:51.336Z,28.00
2023-02-12T19:24:53.749Z,29.50
2023-02-12T19:29:56.286Z,31.30
2023-02-12T19:34:58.755Z,32.40
2023-02-12T19:40:01.183Z,34.00
2023-02-12T19:45:04.124Z,35.70
2023-02-12T19:50:07.458Z,37.30
2023-02-12T19:55:09.877Z,38.50
2023-02-12T20:00:13.122Z,39.70
2023-02-12T20:05:15.709Z,41.10
2023-02-12T20:10:18.486Z,42.20
2023-02-12T20:15:21.007Z,43.30
2023-02-12T20:20:23.474Z,44.40
2023-02-12T20:25:26.516Z,45.30
2023-02-12T20:30:28.997Z,46.10
2023-02-12T20:35:31.596Z,46.90
2023-02-12T20:40:34.097Z,47.60
2023-02-12T20:45:36.961Z,48.40
2023-02-12T20:50:39.429Z,49.10
2023-02-12T20:55:41.992Z,49.60
2023-02-12T21:00:44.952Z,50.10
2023-02-12T21:05:47.380Z,50.70
2023-02-12T21:10:49.835Z,51.30
2023-02-12T21:15:52.454Z,51.60
2023-02-12T21:21:00.953Z,51.80
2023-02-12T21:26:17.415Z,52.00
2023-02-12T21:31:25.765Z,52.30
2023-02-12T21:36:30.915Z,52.60
2023-02-12T21:41:36.222Z,52.70
2023-02-12T21:46:39.615Z,54.80
2023-02-12T21:51:44.273Z,55.10
2023-02-12T21:56:48.396Z,55.20
2023-02-12T22:01:52.971Z,55.20
2023-02-12T22:06:56.653Z,55.00
2023-02-12T22:11:59.126Z,54.50
2023-02-12T22:17:01.744Z,54.40
2023-02-12T22:22:04.201Z,54.50
2023-02-12T22:27:06.616Z,54.30
2023-02-12T22:32:10.129Z,54.20
2023-02-12T22:37:12.665Z,54.20
2023-02-12T22:42:15.070Z,54.00
2023-02-12T22:47:17.779Z,54.30
2023-02-12T22:52:20.243Z,54.80
2023-02-12T22:57:22.616Z,54.90
2023-02-12T23:02:25.311Z,54.90
2023-02-12T23:07:27.716Z,54.30
2023-02-12T23:12:30.159Z,53.20
2023-02-12T23:17:32.551Z,52.00
2023-02-12T23:22:35.450Z,50.90
2023-02-12T23:27:38.159Z,49.70
2023-02-12T23:32:40.532Z,47.90
2023-02-12T23:37:42.960Z,46.40
2023-02-12T23:42:46.603Z,44.90
2023-02-12T23:47:49.438Z,43.60
2023-02-12T23:52:51.873Z,42.10
2023-02-12T23:57:54.244Z,41.40
